Time;durP1;ratioP1;P1;durP2;ratioP2;P2;SDS_P1;SDS_P2;PMS_P1;PMS_P2;Temp;Humidity;BMP_temperature;BMP_pressure;BME280_temperature;BME280_humidity;BME280_pressure;Samples;Min_cycle;Max_cycle;Signal;HPM_P1;HPM_P2
2024/03/14 00:00:58;;;;;;;16.17;8.27;;;;;;;;;;6175066;23;20168;-90
2024/03/14 00:04:04;;;;;;;23.10;9.13;;;;;;;;;;6175861;23;20172;-90
2024/03/14 00:07:09;;;;;;;16.00;7.38;;;;;;;;;;6175323;23;20242;-90
2024/03/14 00:10:15;;;;;;;13.05;7.68;;;;;;;;;;6174310;23;20172;-91
2024/03/14 00:13:20;;;;;;;13.52;7.90;;;;;;;;;;6174189;23;20168;-90
2024/03/14 00:16:26;;;;;;;15.82;8.15;;;;;;;;;;6174023;23;20163;-91
2024/03/14 00:19:33;;;;;;;13.63;7.95;;;;;;;;;;6175215;23;20722;-91
2024/03/14 00:22:38;;;;;;;13.57;7.57;;;;;;;;;;6174530;23;20176;-90
2024/03/14 00:25:43;;;;;;;11.35;7.22;;;;;;;;;;6175564;23;20493;-89
2024/03/14 00:28:48;;;;;;;12.15;6.72;;;;;;;;;;6174475;23;20187;-90
2024/03/14 00:31:53;;;;;;;12.32;7.45;;;;;;;;;;6176144;23;20176;-90
2024/03/14 00:34:59;;;;;;;13.27;7.18;;;;;;;;;;6157613;23;20176;-90
2024/03/14 00:38:05;;;;;;;13.90;7.20;;;;;;;;;;6174293;23;20152;-89
2024/03/14 00:41:14;;;;;;;12.48;7.68;;;;;;;;;;6172786;23;20168;-90
2024/03/14 00:44:19;;;;;;;11.73;7.63;;;;;;;;;;6174085;23;20240;-89
2024/03/14 00:47:25;;;;;;;14.48;7.18;;;;;;;;;;6173880;23;20192;-90
2024/03/14 00:50:33;;;;;;;12.45;7.60;;;;;;;;;;6174527;23;20172;-89
2024/03/14 00:53:38;;;;;;;10.90;5.90;;;;;;;;;;6174938;23;20172;-91
2024/03/14 00:56:46;;;;;;;17.20;7.25;;;;;;;;;;6173868;23;20817;-90
2024/03/14 00:59:52;;;;;;;13.48;7.35;;;;;;;;;;6190535;23;20180;-90
2024/03/14 01:02:57;;;;;;;12.38;7.20;;;;;;;;;;6190799;23;20623;-90
2024/03/14 01:06:02;;;;;;;13.63;6.70;;;;;;;;;;6173169;23;20288;-90
2024/03/14 01:09:11;;;;;;;13.57;6.18;;;;;;;;;;6173945;23;20167;-90
2024/03/14 01:12:16;;;;;;;13.70;7.13;;;;;;;;;;6173986;23;20172;-90
2024/03/14 01:15:22;;;;;;;13.77;6.60;;;;;;;;;;6175689;23;20171;-90
2024/03/14 01:18:27;;;;;;;12.18;6.38;;;;;;;;;;6157600;23;20167;-90
2024/03/14 01:21:35;;;;;;;11.80;6.93;;;;;;;;;;6175337;23;20238;-90
2024/03/14 01:24:40;;;;;;;10.07;6.30;;;;;;;;;;6174205;23;20184;-88
2024/03/14 01:27:46;;;;;;;13.85;6.80;;;;;;;;;;6173604;23;20312;-89
2024/03/14 01:30:52;;;;;;;12.60;6.00;;;;;;;;;;6177213;23;20175;-90
2024/03/14 01:33:58;;;;;;;11.40;5.68;;;;;;;;;;6177438;23;20175;-90
2024/03/14 01:37:06;;;;;;;10.63;5.70;;;;;;;;;;6176817;23;20180;-90
2024/03/14 01:40:12;;;;;;;9.77;5.10;;;;;;;;;;6175100;23;20246;-89
2024/03/14 01:43:18;;;;;;;9.95;5.45;;;;;;;;;;6177191;23;20203;-88
2024/03/14 01:46:23;;;;;;;12.25;5.22;;;;;;;;;;6177069;23;20279;-89
2024/03/14 01:49:28;;;;;;;11.00;5.00;;;;;;;;;;6177448;23;20184;-89
2024/03/14 01:52:35;;;;;;;9.43;5.15;;;;;;;;;;6177724;23;20510;-90
2024/03/14 01:55:39;;;;;;;8.65;5.03;;;;;;;;;;6177057;23;20168;-90
2024/03/14 01:58:45;;;;;;;10.63;4.72;;;;;;;;;;6176093;23;20171;-89
2024/03/14 02:01:51;;;;;;;9.98;5.15;;;;;;;;;;6175717;23;20234;-89
2024/03/14 02:04:55;;;;;;;12.02;5.43;;;;;;;;;;6177526;23;20215;-91
2024/03/14 02:08:00;;;;;;;10.20;5.80;;;;;;;;;;6177502;23;20210;-89
2024/03/14 02:11:05;;;;;;;9.60;4.90;;;;;;;;;;6177611;23;20244;-90
2024/03/14 02:14:10;;;;;;;12.93;5.75;;;;;;;;;;6160492;23;20167;-89
2024/03/14 02:17:16;;;;;;;10.85;6.05;;;;;;;;;;6176384;23;20171;-90
2024/03/14 02:20:20;;;;;;;10.10;5.47;;;;;;;;;;6177939;23;20152;-89
2024/03/14 02:23:25;;;;;;;11.07;5.72;;;;;;;;;;6178972;23;20168;-90
2024/03/14 02:26:31;;;;;;;11.60;5.68;;;;;;;;;;6178413;23;20171;-90
2024/03/14 02:29:36;;;;;;;10.32;6.18;;;;;;;;;;6178880;23;20207;-90
2024/03/14 02:32:41;;;;;;;10.18;5.78;;;;;;;;;;6179087;23;20222;-89
2024/03/14 02:35:47;;;;;;;10.73;6.32;;;;;;;;;;6178953;23;20172;-89
2024/03/14 02:38:54;;;;;;;10.38;6.30;;;;;;;;;;6179213;23;20183;-90
2024/03/14 02:41:59;;;;;;;15.10;6.78;;;;;;;;;;6175784;23;20191;-90
2024/03/14 02:45:09;;;;;;;11.60;6.80;;;;;;;;;;6176603;23;20163;-90
2024/03/14 02:48:15;;;;;;;10.02;6.22;;;;;;;;;;6175458;23;20195;-89
2024/03/14 02:51:20;;;;;;;15.85;6.68;;;;;;;;;;6174345;23;20211;-90
2024/03/14 02:54:26;;;;;;;15.52;7.15;;;;;;;;;;6175504;23;20167;-91
2024/03/14 02:57:32;;;;;;;19.48;6.65;;;;;;;;;;6175022;23;20620;-90
2024/03/14 03:00:38;;;;;;;12.82;6.90;;;;;;;;;;6175309;23;20168;-91
2024/03/14 03:03:44;;;;;;;11.13;6.97;;;;;;;;;;6159503;23;20176;-90
2024/03/14 03:06:53;;;;;;;17.55;6.60;;;;;;;;;;6173610;23;20261;-89
2024/03/14 03:09:58;;;;;;;12.30;7.05;;;;;;;;;;6175594;23;20172;-91
2024/03/14 03:13:02;;;;;;;15.27;7.72;;;;;;;;;;6174531;23;20250;-90
2024/03/14 03:16:08;;;;;;;15.43;8.35;;;;;;;;;;6174428;23;20176;-91
2024/03/14 03:19:13;;;;;;;19.30;8.35;;;;;;;;;;6175207;23;20268;-92
2024/03/14 03:22:19;;;;;;;17.42;9.20;;;;;;;;;;6178251;23;20179;-90
2024/03/14 03:25:23;;;;;;;15.65;8.52;;;;;;;;;;6179774;23;20199;-90
2024/03/14 03:28:30;;;;;;;22.88;9.05;;;;;;;;;;6180207;23;20203;-89
2024/03/14 03:31:34;;;;;;;17.73;9.25;;;;;;;;;;6180453;23;20172;-92
2024/03/14 03:34:39;;;;;;;16.15;9.02;;;;;;;;;;6179149;23;20814;-89
2024/03/14 03:37:44;;;;;;;19.15;9.20;;;;;;;;;;6180344;23;20168;-90
2024/03/14 03:40:49;;;;;;;15.75;8.63;;;;;;;;;;6179734;23;20163;-89
2024/03/14 03:43:54;;;;;;;18.20;9.02;;;;;;;;;;6179177;23;20323;-92
2024/03/14 03:47:00;;;;;;;16.85;8.93;;;;;;;;;;6178202;23;20307;-92
2024/03/14 03:50:06;;;;;;;16.85;8.75;;;;;;;;;;6179120;23;20247;-89
2024/03/14 03:53:11;;;;;;;22.60;9.45;;;;;;;;;;6178700;23;20208;-90
2024/03/14 03:56:16;;;;;;;21.80;10.23;;;;;;;;;;6176701;23;20170;-89
2024/03/14 03:59:21;;;;;;;20.80;9.50;;;;;;;;;;6178875;23;20539;-90
2024/03/14 04:02:26;;;;;;;21.60;9.32;;;;;;;;;;6178536;23;20164;-89
2024/03/14 04:05:31;;;;;;;18.23;9.35;;;;;;;;;;6178808;23;20623;-90
2024/03/14 04:08:36;;;;;;;20.40;9.65;;;;;;;;;;6178764;23;20191;-91
2024/03/14 04:11:42;;;;;;;21.00;10.00;;;;;;;;;;6177931;23;20211;-89
2024/03/14 04:14:47;;;;;;;27.52;11.05;;;;;;;;;;6178694;23;20208;-89
2024/03/14 04:17:53;;;;;;;23.35;10.25;;;;;;;;;;6178811;23;20176;-90
2024/03/14 04:20:58;;;;;;;21.48;11.02;;;;;;;;;;6178217;23;20187;-89
2024/03/14 04:24:03;;;;;;;23.98;10.90;;;;;;;;;;6178206;23;20163;-90
2024/03/14 04:27:10;;;;;;;21.67;10.90;;;;;;;;;;6177590;23;20175;-90
2024/03/14 04:30:17;;;;;;;19.55;10.88;;;;;;;;;;6177882;23;20192;-91
2024/03/14 04:33:22;;;;;;;23.90;11.38;;;;;;;;;;6178736;23;20212;-89
2024/03/14 04:36:28;;;;;;;21.25;10.90;;;;;;;;;;6178860;23;20167;-91
2024/03/14 04:39:33;;;;;;;25.30;11.93;;;;;;;;;;6178082;23;20168;-89
2024/03/14 04:42:40;;;;;;;21.35;11.32;;;;;;;;;;6178862;23;20147;-90
2024/03/14 04:45:48;;;;;;;22.02;11.40;;;;;;;;;;6178790;23;20172;-89
2024/03/14 04:48:53;;;;;;;24.25;12.38;;;;;;;;;;6180372;23;20199;-89
2024/03/14 04:51:59;;;;;;;24.20;12.45;;;;;;;;;;6179726;23;20168;-90
2024/03/14 04:55:08;;;;;;;22.23;12.00;;;;;;;;;;6178417;23;20168;-89
2024/03/14 04:58:15;;;;;;;21.75;11.52;;;;;;;;;;6178646;23;20656;-90
2024/03/14 05:01:20;;;;;;;25.10;11.68;;;;;;;;;;6178569;23;20159;-90
2024/03/14 05:04:26;;;;;;;26.58;12.30;;;;;;;;;;6178534;23;20167;-88
2024/03/14 05:07:31;;;;;;;24.35;12.43;;;;;;;;;;6178666;23;20192;-90
2024/03/14 05:10:37;;;;;;;24.48;11.73;;;;;;;;;;6177993;23;20153;-91
2024/03/14 05:13:42;;;;;;;23.92;12.18;;;;;;;;;;6186068;23;20171;-91
2024/03/14 05:16:47;;;;;;;28.70;13.43;;;;;;;;;;6177035;23;20180;-91
2024/03/14 05:19:52;;;;;;;26.42;13.70;;;;;;;;;;6195730;23;20164;-90
2024/03/14 05:22:57;;;;;;;22.95;12.52;;;;;;;;;;6176883;23;20175;-90
2024/03/14 05:26:03;;;;;;;25.80;12.80;;;;;;;;;;6178537;23;20172;-91
2024/03/14 05:29:08;;;;;;;27.20;12.55;;;;;;;;;;6178577;23;20214;-90
2024/03/14 05:32:21;;;;;;;26.00;13.00;;;;;;;;;;6182291;23;20211;-89
2024/03/14 05:35:27;;;;;;;26.83;12.85;;;;;;;;;;6179944;23;20207;-89
2024/03/14 05:38:35;;;;;;;24.67;11.95;;;;;;;;;;6180583;23;20175;-89
2024/03/14 05:41:41;;;;;;;26.13;13.38;;;;;;;;;;6199775;23;20203;-89
2024/03/14 05:44:50;;;;;;;30.35;13.60;;;;;;;;;;6178799;23;20167;-89
2024/03/14 05:51:14;;;;;;;35.58;14.57;;;;;;;;;;6193773;23;20243;-90
2024/03/14 05:54:20;;;;;;;27.80;13.13;;;;;;;;;;6177214;23;20163;-89
2024/03/14 05:57:25;;;;;;;29.00;13.77;;;;;;;;;;6175900;23;20258;-90
2024/03/14 06:00:32;;;;;;;28.63;12.52;;;;;;;;;;6193039;23;20234;-90
2024/03/14 06:03:38;;;;;;;25.33;12.73;;;;;;;;;;6194463;23;20241;-91
2024/03/14 06:06:43;;;;;;;26.05;12.50;;;;;;;;;;6181504;23;20164;-89
2024/03/14 06:09:49;;;;;;;30.60;13.25;;;;;;;;;;6175788;23;20272;-88
2024/03/14 06:12:54;;;;;;;24.73;12.57;;;;;;;;;;6177563;23;20785;-92
2024/03/14 06:16:00;;;;;;;26.13;11.75;;;;;;;;;;6178816;23;20167;-89
2024/03/14 06:19:08;;;;;;;20.63;11.25;;;;;;;;;;6165688;23;20163;-90
2024/03/14 06:22:15;;;;;;;30.95;13.18;;;;;;;;;;6182932;23;20167;-93
2024/03/14 06:25:21;;;;;;;28.77;13.18;;;;;;;;;;6181865;23;20172;-90
2024/03/14 06:28:27;;;;;;;30.20;13.35;;;;;;;;;;6180654;23;20258;-89
2024/03/14 06:31:33;;;;;;;24.75;13.10;;;;;;;;;;6184781;23;20172;-89
2024/03/14 06:34:42;;;;;;;25.15;13.00;;;;;;;;;;6180837;23;20176;-89
2024/03/14 06:37:47;;;;;;;28.33;12.73;;;;;;;;;;6179832;23;20207;-89
2024/03/14 06:40:53;;;;;;;31.55;14.43;;;;;;;;;;6183775;23;20172;-87
2024/03/14 06:43:59;;;;;;;27.70;13.05;;;;;;;;;;6183510;23;20235;-89
2024/03/14 06:47:05;;;;;;;25.88;12.57;;;;;;;;;;6185531;23;20163;-89
2024/03/14 06:50:12;;;;;;;23.83;12.43;;;;;;;;;;6183071;23;20156;-89
2024/03/14 06:53:18;;;;;;;30.25;12.20;;;;;;;;;;6184144;23;20168;-90
2024/03/14 06:56:23;;;;;;;29.30;12.98;;;;;;;;;;6182910;23;20180;-88
2024/03/14 06:59:29;;;;;;;26.50;13.07;;;;;;;;;;6179638;23;20172;-89
2024/03/14 07:02:38;;;;;;;32.55;13.95;;;;;;;;;;6177647;23;20172;-89
2024/03/14 07:05:44;;;;;;;29.25;13.70;;;;;;;;;;6180788;23;20151;-90
2024/03/14 07:08:56;;;;;;;31.83;14.10;;;;;;;;;;6165959;23;20196;-89
2024/03/14 07:12:01;;;;;;;33.70;14.93;;;;;;;;;;6181089;23;20176;-90
2024/03/14 07:15:06;;;;;;;34.42;14.80;;;;;;;;;;6179882;23;20271;-88
2024/03/14 07:18:11;;;;;;;33.40;13.77;;;;;;;;;;6180571;23;20171;-88
2024/03/14 07:21:18;;;;;;;34.63;15.27;;;;;;;;;;6183092;23;20168;-89
2024/03/14 07:24:23;;;;;;;28.58;13.75;;;;;;;;;;6179101;23;20184;-88
2024/03/14 07:27:29;;;;;;;31.23;14.55;;;;;;;;;;6180566;23;20603;-88
2024/03/14 07:30:34;;;;;;;33.47;15.10;;;;;;;;;;6179970;23;20167;-90
2024/03/14 07:33:40;;;;;;;32.10;14.55;;;;;;;;;;6182370;23;20195;-92
2024/03/14 07:36:50;;;;;;;220.52;57.50;;;;;;;;;;6182011;23;20303;-87
2024/03/14 07:39:56;;;;;;;61.20;23.23;;;;;;;;;;6179922;23;20260;-89
2024/03/14 07:43:01;;;;;;;31.50;14.57;;;;;;;;;;6179678;23;20607;-89
2024/03/14 07:46:07;;;;;;;92.28;30.52;;;;;;;;;;6178586;23;20179;-89
2024/03/14 07:49:14;;;;;;;58.42;22.20;;;;;;;;;;6178457;23;20215;-89
2024/03/14 07:52:19;;;;;;;41.67;15.82;;;;;;;;;;6179375;23;20219;-89
2024/03/14 07:55:25;;;;;;;40.78;17.90;;;;;;;;;;6177854;23;20192;-89
2024/03/14 07:58:30;;;;;;;33.25;15.93;;;;;;;;;;6180848;23;20195;-89
2024/03/14 08:01:35;;;;;;;36.47;16.95;;;;;;;;;;6180611;23;20232;-89
2024/03/14 08:04:41;;;;;;;38.75;17.08;;;;;;;;;;6180623;23;20208;-88
2024/03/14 08:07:46;;;;;;;41.33;17.52;;;;;;;;;;6180140;23;20171;-89
2024/03/14 08:10:52;;;;;;;47.90;21.83;;;;;;;;;;6178711;23;20163;-89
2024/03/14 08:14:06;;;;;;;55.25;22.42;;;;;;;;;;6177320;23;20164;-89
2024/03/14 08:17:13;;;;;;;37.70;16.33;;;;;;;;;;6180604;23;20168;-89
2024/03/14 08:20:24;;;;;;;51.92;24.00;;;;;;;;;;6179035;23;20172;-90
2024/03/14 08:23:32;;;;;;;41.55;19.92;;;;;;;;;;6180221;23;20221;-90
2024/03/14 08:26:37;;;;;;;34.92;17.05;;;;;;;;;;6177255;23;20164;-89
2024/03/14 08:29:43;;;;;;;31.52;16.33;;;;;;;;;;6180036;23;20263;-90
2024/03/14 08:32:49;;;;;;;41.20;21.92;;;;;;;;;;6178463;23;20250;-90
2024/03/14 08:35:56;;;;;;;87.28;47.15;;;;;;;;;;6179767;23;20167;-89
2024/03/14 08:39:04;;;;;;;35.78;17.33;;;;;;;;;;6178261;23;20175;-90
2024/03/14 08:42:10;;;;;;;28.42;13.75;;;;;;;;;;6161978;23;20183;-90
2024/03/14 08:45:15;;;;;;;29.70;13.88;;;;;;;;;;6179614;23;20199;-89
2024/03/14 08:48:22;;;;;;;27.05;12.60;;;;;;;;;;6179918;23;20215;-89
2024/03/14 08:51:27;;;;;;;26.67;13.52;;;;;;;;;;6178364;23;20173;-90
2024/03/14 08:54:33;;;;;;;29.27;13.85;;;;;;;;;;6178259;23;20183;-90
2024/03/14 08:57:38;;;;;;;26.15;13.15;;;;;;;;;;6178179;23;20167;-90
2024/03/14 09:00:43;;;;;;;24.05;12.35;;;;;;;;;;6179183;23;20636;-91
2024/03/14 09:03:49;;;;;;;25.13;12.68;;;;;;;;;;6178855;23;20596;-90
2024/03/14 09:06:58;;;;;;;22.98;12.23;;;;;;;;;;6181020;23;20191;-90
2024/03/14 09:10:04;;;;;;;77.70;34.47;;;;;;;;;;6177314;23;20195;-90
2024/03/14 09:13:08;;;;;;;23.90;12.25;;;;;;;;;;6177786;23;20147;-89
2024/03/14 09:16:14;;;;;;;23.55;12.82;;;;;;;;;;6177187;23;20171;-90
2024/03/14 09:19:19;;;;;;;23.00;12.35;;;;;;;;;;6177161;23;20223;-90
2024/03/14 09:22:25;;;;;;;23.65;13.00;;;;;;;;;;6178650;23;20236;-89
2024/03/14 09:25:30;;;;;;;25.02;12.52;;;;;;;;;;6177210;23;20187;-90
2024/03/14 09:28:38;;;;;;;24.75;12.20;;;;;;;;;;6178682;23;20637;-90
2024/03/14 09:31:46;;;;;;;22.58;11.95;;;;;;;;;;6178228;23;20171;-89
2024/03/14 09:34:51;;;;;;;25.52;13.07;;;;;;;;;;6180352;23;20187;-88
2024/03/14 09:37:57;;;;;;;24.88;12.68;;;;;;;;;;6176758;23;20203;-89
2024/03/14 09:41:02;;;;;;;27.20;13.20;;;;;;;;;;6178524;23;20479;-90
2024/03/14 09:44:07;;;;;;;25.70;11.45;;;;;;;;;;6178163;23;20187;-89
2024/03/14 09:47:12;;;;;;;20.52;11.43;;;;;;;;;;6178303;23;20163;-90
2024/03/14 09:50:17;;;;;;;25.75;12.93;;;;;;;;;;6179707;23;20199;-89
2024/03/14 09:53:26;;;;;;;23.02;11.77;;;;;;;;;;6180102;23;20180;-89
2024/03/14 09:56:31;;;;;;;23.92;12.10;;;;;;;;;;6180495;23;20168;-90
2024/03/14 09:59:38;;;;;;;25.88;11.57;;;;;;;;;;6178605;23;20175;-89
2024/03/14 10:02:43;;;;;;;30.48;12.50;;;;;;;;;;6181628;23;20168;-89
2024/03/14 10:05:51;;;;;;;24.42;12.02;;;;;;;;;;6163044;23;20175;-90
2024/03/14 10:08:57;;;;;;;21.50;11.57;;;;;;;;;;6177800;23;20252;-90
2024/03/14 10:12:02;;;;;;;24.83;11.30;;;;;;;;;;6199392;23;20152;-90
2024/03/14 10:15:12;;;;;;;24.70;11.38;;;;;;;;;;6181773;23;20172;-89
2024/03/14 10:18:19;;;;;;;25.20;12.25;;;;;;;;;;6182478;23;20247;-89
2024/03/14 10:21:24;;;;;;;26.17;12.60;;;;;;;;;;6181962;23;20218;-90
2024/03/14 10:24:29;;;;;;;22.55;11.43;;;;;;;;;;6180115;23;20247;-89
2024/03/14 10:27:38;;;;;;;29.42;11.77;;;;;;;;;;6181421;23;20168;-90
2024/03/14 10:30:51;;;;;;;22.95;10.35;;;;;;;;;;6180611;23;20516;-88
2024/03/14 10:33:56;;;;;;;21.98;10.60;;;;;;;;;;6180132;23;20628;-89
2024/03/14 10:37:02;;;;;;;22.58;10.73;;;;;;;;;;6183411;23;20224;-90
2024/03/14 10:40:09;;;;;;;22.95;9.77;;;;;;;;;;6181915;23;20219;-90
2024/03/14 10:43:14;;;;;;;21.77;9.27;;;;;;;;;;6181621;23;20595;-89
2024/03/14 10:46:20;;;;;;;20.10;9.30;;;;;;;;;;6181046;23;20210;-90
2024/03/14 10:49:25;;;;;;;20.38;8.63;;;;;;;;;;6180411;23;20290;-89
2024/03/14 10:52:30;;;;;;;19.35;8.98;;;;;;;;;;6181671;23;20156;-89
2024/03/14 10:55:35;;;;;;;20.08;9.00;;;;;;;;;;6181347;23;20604;-89
2024/03/14 10:58:41;;;;;;;19.67;8.90;;;;;;;;;;6181368;23;20180;-90
2024/03/14 11:01:50;;;;;;;20.02;9.82;;;;;;;;;;6178499;23;20168;-90
2024/03/14 11:05:00;;;;;;;27.20;9.32;;;;;;;;;;6180358;23;20180;-91
2024/03/14 11:08:06;;;;;;;21.00;9.05;;;;;;;;;;6179137;23;20200;-89
2024/03/14 11:11:12;;;;;;;18.92;8.80;;;;;;;;;;6180195;23;20216;-89
2024/03/14 11:14:18;;;;;;;21.70;9.05;;;;;;;;;;6180534;23;20167;-89
2024/03/14 11:17:24;;;;;;;19.75;9.38;;;;;;;;;;6178057;23;20495;-89
2024/03/14 11:20:29;;;;;;;18.60;8.75;;;;;;;;;;6178453;23;20160;-89
2024/03/14 11:23:35;;;;;;;21.88;9.95;;;;;;;;;;6179773;23;20168;-89
2024/03/14 11:26:40;;;;;;;19.63;8.93;;;;;;;;;;6179200;23;20163;-89
2024/03/14 11:29:45;;;;;;;21.40;9.63;;;;;;;;;;6180653;23;20206;-90
2024/03/14 11:32:54;;;;;;;19.17;9.35;;;;;;;;;;6169058;23;20209;-90
2024/03/14 11:35:59;;;;;;;22.17;11.43;;;;;;;;;;6178944;23;20168;-88
2024/03/14 11:39:16;;;;;;;19.38;8.90;;;;;;;;;;6178721;23;20175;-89
2024/03/14 11:42:23;;;;;;;20.40;9.05;;;;;;;;;;6195511;23;20176;-90
2024/03/14 11:45:31;;;;;;;20.15;9.85;;;;;;;;;;6196411;23;20290;-87
2024/03/14 11:48:38;;;;;;;19.92;8.82;;;;;;;;;;6178626;23;20175;-88
2024/03/14 11:51:44;;;;;;;21.15;9.32;;;;;;;;;;6179357;23;20231;-88
2024/03/14 11:54:49;;;;;;;20.20;8.60;;;;;;;;;;6177028;23;20615;-89
2024/03/14 11:57:55;;;;;;;20.63;9.73;;;;;;;;;;6196234;23;20175;-90
2024/03/14 12:01:03;;;;;;;19.75;8.35;;;;;;;;;;6179786;23;20235;-91
2024/03/14 12:04:10;;;;;;;22.30;9.82;;;;;;;;;;6177567;23;20246;-90
2024/03/14 12:07:15;;;;;;;20.67;9.20;;;;;;;;;;6180877;23;20176;-91
2024/03/14 12:10:20;;;;;;;18.67;8.75;;;;;;;;;;6177524;23;20267;-89
2024/03/14 12:13:27;;;;;;;19.42;8.68;;;;;;;;;;6177903;23;20171;-88
2024/03/14 12:16:37;;;;;;;19.15;8.57;;;;;;;;;;6177341;23;20168;-89
2024/03/14 12:19:43;;;;;;;21.52;9.45;;;;;;;;;;6177605;23;20168;-90
2024/03/14 12:22:51;;;;;;;16.42;7.40;;;;;;;;;;6177018;23;20175;-90
2024/03/14 12:26:01;;;;;;;14.90;6.75;;;;;;;;;;6174707;23;20246;-89
2024/03/14 12:29:07;;;;;;;17.05;7.10;;;;;;;;;;6175939;23;20659;-88
2024/03/14 12:32:12;;;;;;;15.68;7.13;;;;;;;;;;6177391;23;20164;-88
2024/03/14 12:35:18;;;;;;;14.75;7.57;;;;;;;;;;6159137;23;20168;-89
2024/03/14 12:38:23;;;;;;;16.40;6.97;;;;;;;;;;6179164;23;20159;-90
2024/03/14 12:41:29;;;;;;;21.02;7.18;;;;;;;;;;6159379;23;20176;-88
2024/03/14 12:44:34;;;;;;;14.63;7.32;;;;;;;;;;6176991;23;20283;-89
2024/03/14 12:47:40;;;;;;;19.02;7.80;;;;;;;;;;6176675;23;20167;-89
2024/03/14 12:50:46;;;;;;;18.83;7.18;;;;;;;;;;6178323;23;20694;-89
2024/03/14 12:53:56;;;;;;;16.38;6.82;;;;;;;;;;6163103;23;20167;-88
2024/03/14 12:57:05;;;;;;;14.95;6.95;;;;;;;;;;6177303;23;20167;-88
2024/03/14 13:00:17;;;;;;;16.98;7.25;;;;;;;;;;6179411;23;20167;-90
2024/03/14 13:03:32;;;;;;;15.07;7.20;;;;;;;;;;6200185;23;20207;-88
2024/03/14 13:06:38;;;;;;;16.85;7.30;;;;;;;;;;6179279;23;20185;-90
2024/03/14 13:09:44;;;;;;;16.42;7.07;;;;;;;;;;6180272;23;20195;-91
2024/03/14 13:12:58;;;;;;;13.00;6.82;;;;;;;;;;6171632;23;20176;-88
2024/03/14 13:16:15;;;;;;;15.57;7.10;;;;;;;;;;6179641;23;20242;-90
2024/03/14 13:19:21;;;;;;;16.08;7.80;;;;;;;;;;6160425;23;20631;-89
2024/03/14 13:22:28;;;;;;;19.40;9.88;;;;;;;;;;6175280;23;20176;-89
2024/03/14 13:25:33;;;;;;;15.85;6.90;;;;;;;;;;6175147;23;20171;-89
2024/03/14 13:28:39;;;;;;;13.80;6.97;;;;;;;;;;6175185;23;20178;-89
2024/03/14 13:31:46;;;;;;;13.68;6.78;;;;;;;;;;6176186;23;20167;-89
2024/03/14 13:34:51;;;;;;;14.38;7.72;;;;;;;;;;6177015;23;20163;-89
2024/03/14 13:37:57;;;;;;;16.48;7.50;;;;;;;;;;6175087;23;20171;-88
2024/03/14 13:41:02;;;;;;;14.70;6.65;;;;;;;;;;6177622;23;20176;-89
2024/03/14 13:44:07;;;;;;;13.05;6.32;;;;;;;;;;6177213;23;20171;-89
2024/03/14 13:47:16;;;;;;;16.75;6.47;;;;;;;;;;6180112;23;20192;-89
2024/03/14 13:50:22;;;;;;;12.88;6.20;;;;;;;;;;6182098;23;20229;-89
2024/03/14 13:53:28;;;;;;;13.77;6.72;;;;;;;;;;6177827;23;20156;-89
2024/03/14 13:56:33;;;;;;;15.27;6.70;;;;;;;;;;6176138;23;20494;-89
2024/03/14 13:59:41;;;;;;;13.88;6.38;;;;;;;;;;6177296;23;20168;-90
2024/03/14 14:02:46;;;;;;;13.02;7.28;;;;;;;;;;6194086;23;20188;-89
2024/03/14 14:05:54;;;;;;;13.20;6.07;;;;;;;;;;6176736;23;20283;-90
2024/03/14 14:09:00;;;;;;;12.18;6.15;;;;;;;;;;6177594;23;20171;-90
2024/03/14 14:12:05;;;;;;;14.40;7.03;;;;;;;;;;6177265;23;20251;-88
2024/03/14 14:15:11;;;;;;;12.70;6.70;;;;;;;;;;6178822;23;20716;-89
2024/03/14 14:18:17;;;;;;;12.25;6.60;;;;;;;;;;6179349;23;20486;-88
2024/03/14 14:21:23;;;;;;;11.82;6.45;;;;;;;;;;6163306;23;20176;-90
2024/03/14 14:24:29;;;;;;;12.57;6.80;;;;;;;;;;6179898;23;20188;-90
2024/03/14 14:27:34;;;;;;;15.20;6.45;;;;;;;;;;6177266;23;20172;-89
2024/03/14 14:30:41;;;;;;;12.80;6.03;;;;;;;;;;6176916;23;20196;-90
2024/03/14 14:33:55;;;;;;;14.23;6.65;;;;;;;;;;6177544;23;20176;-90
2024/03/14 14:37:00;;;;;;;15.00;6.55;;;;;;;;;;6177152;23;20168;-90
2024/03/14 14:40:09;;;;;;;11.88;5.80;;;;;;;;;;6176784;23;20189;-90
2024/03/14 14:43:16;;;;;;;13.68;6.15;;;;;;;;;;6177696;23;20187;-90
2024/03/14 14:46:22;;;;;;;12.90;5.68;;;;;;;;;;6176514;23;20176;-90
2024/03/14 14:49:27;;;;;;;13.15;5.65;;;;;;;;;;6176618;23;20687;-89
2024/03/14 14:52:33;;;;;;;13.60;6.35;;;;;;;;;;6158807;23;20159;-89
2024/03/14 14:55:40;;;;;;;15.63;6.97;;;;;;;;;;6179950;23;20168;-89
2024/03/14 14:58:47;;;;;;;14.75;6.00;;;;;;;;;;6176033;23;20172;-89
2024/03/14 15:01:53;;;;;;;10.70;5.85;;;;;;;;;;6177566;23;20172;-90
2024/03/14 15:04:59;;;;;;;13.15;5.72;;;;;;;;;;6160144;23;20167;-89
2024/03/14 15:08:04;;;;;;;9.43;5.25;;;;;;;;;;6179830;23;20210;-90
2024/03/14 15:11:15;;;;;;;12.13;5.25;;;;;;;;;;6177059;23;20314;-90
2024/03/14 15:14:20;;;;;;;11.30;5.25;;;;;;;;;;6177149;23;20175;-90
2024/03/14 15:17:26;;;;;;;11.18;5.68;;;;;;;;;;6174843;23;20176;-89
2024/03/14 15:20:31;;;;;;;17.70;8.23;;;;;;;;;;6177915;23;20201;-90
2024/03/14 15:23:37;;;;;;;11.68;5.82;;;;;;;;;;6178199;23;20520;-90
2024/03/14 15:26:43;;;;;;;11.05;5.53;;;;;;;;;;6176521;23;20188;-89
2024/03/14 15:29:53;;;;;;;12.02;5.07;;;;;;;;;;6177797;23;20208;-88
2024/03/14 15:33:00;;;;;;;16.50;6.25;;;;;;;;;;6176660;23;20176;-88
2024/03/14 15:36:09;;;;;;;10.43;5.38;;;;;;;;;;6178873;23;20208;-88
2024/03/14 15:39:27;;;;;;;10.05;5.35;;;;;;;;;;6181397;23;20163;-90
2024/03/14 15:42:33;;;;;;;11.65;5.55;;;;;;;;;;6180471;23;20188;-89
2024/03/14 15:45:37;;;;;;;10.77;5.10;;;;;;;;;;6178477;23;20250;-90
2024/03/14 15:48:42;;;;;;;11.30;5.47;;;;;;;;;;6177507;23;20172;-89
2024/03/14 15:51:47;;;;;;;11.05;4.95;;;;;;;;;;6178101;23;20603;-89
2024/03/14 15:54:55;;;;;;;8.10;4.90;;;;;;;;;;6178061;23;20171;-90
2024/03/14 15:58:00;;;;;;;10.60;4.95;;;;;;;;;;6178827;23;20575;-89
2024/03/14 16:01:06;;;;;;;8.68;5.03;;;;;;;;;;6175870;23;20259;-90
2024/03/14 16:04:12;;;;;;;11.68;5.03;;;;;;;;;;6175477;23;20172;-90
2024/03/14 16:07:17;;;;;;;19.95;6.00;;;;;;;;;;6175539;23;20215;-89
2024/03/14 16:10:23;;;;;;;12.27;6.20;;;;;;;;;;6177007;23;20238;-90
2024/03/14 16:13:28;;;;;;;12.27;5.43;;;;;;;;;;6176861;23;20176;-89
2024/03/14 16:16:34;;;;;;;18.95;11.23;;;;;;;;;;6177119;23;20205;-90
2024/03/14 16:19:40;;;;;;;14.20;7.47;;;;;;;;;;6176503;23;20187;-89
2024/03/14 16:22:46;;;;;;;12.13;6.63;;;;;;;;;;6177746;23;20163;-89
2024/03/14 16:25:55;;;;;;;20.92;6.22;;;;;;;;;;6177079;23;20172;-89
2024/03/14 16:29:01;;;;;;;13.75;6.07;;;;;;;;;;6176646;23;20199;-88
2024/03/14 16:32:06;;;;;;;18.80;6.40;;;;;;;;;;6176519;23;20524;-88
2024/03/14 16:35:16;;;;;;;17.67;6.60;;;;;;;;;;6178134;23;20168;-89
2024/03/14 16:38:22;;;;;;;14.10;5.82;;;;;;;;;;6178549;23;20167;-90
2024/03/14 16:41:31;;;;;;;9.57;5.28;;;;;;;;;;6178027;23;20176;-88
2024/03/14 16:44:38;;;;;;;16.83;9.38;;;;;;;;;;6176811;23;20175;-89
2024/03/14 16:47:44;;;;;;;11.57;5.80;;;;;;;;;;6177493;23;20171;-89
2024/03/14 16:50:49;;;;;;;14.40;5.85;;;;;;;;;;6177061;23;20270;-89
2024/03/14 16:53:54;;;;;;;14.80;5.68;;;;;;;;;;6177001;23;20172;-90
2024/03/14 16:56:59;;;;;;;13.38;6.40;;;;;;;;;;6175460;23;20168;-88
2024/03/14 17:00:09;;;;;;;17.60;7.82;;;;;;;;;;6179057;23;20175;-89
2024/03/14 17:03:16;;;;;;;18.05;7.80;;;;;;;;;;6175684;23;20616;-89
2024/03/14 17:06:20;;;;;;;19.92;8.30;;;;;;;;;;6176246;23;20280;-89
2024/03/14 17:09:26;;;;;;;18.13;8.10;;;;;;;;;;6175601;23;20239;-88
2024/03/14 17:12:31;;;;;;;25.55;9.38;;;;;;;;;;6176552;23;20271;-86
2024/03/14 17:15:39;;;;;;;16.73;7.70;;;;;;;;;;6160611;23;20159;-88
2024/03/14 17:18:44;;;;;;;18.08;7.65;;;;;;;;;;6175399;23;20187;-89
2024/03/14 17:21:50;;;;;;;19.85;8.13;;;;;;;;;;6177781;23;20171;-90
2024/03/14 17:24:56;;;;;;;15.18;7.38;;;;;;;;;;6174609;23;20279;-87
2024/03/14 17:28:04;;;;;;;17.17;7.80;;;;;;;;;;6174717;23;20203;-87
2024/03/14 17:31:09;;;;;;;16.85;7.95;;;;;;;;;;6176864;23;20288;-87
2024/03/14 17:34:15;;;;;;;14.23;7.07;;;;;;;;;;6158854;23;20172;-90
2024/03/14 17:37:24;;;;;;;16.52;7.70;;;;;;;;;;6175587;23;20244;-88
2024/03/14 17:40:29;;;;;;;20.88;7.75;;;;;;;;;;6175601;23;20554;-89
2024/03/14 17:43:34;;;;;;;23.98;10.57;;;;;;;;;;6175361;23;20171;-89
2024/03/14 17:46:41;;;;;;;24.70;9.32;;;;;;;;;;6176738;23;20248;-89
2024/03/14 17:49:46;;;;;;;17.25;8.15;;;;;;;;;;6176673;23;20296;-90
2024/03/14 17:52:51;;;;;;;16.38;7.63;;;;;;;;;;6175174;23;20168;-88
2024/03/14 17:55:58;;;;;;;18.92;8.57;;;;;;;;;;6174378;23;20175;-88
2024/03/14 17:59:08;;;;;;;22.10;8.25;;;;;;;;;;6174180;23;20164;-87
2024/03/14 18:02:13;;;;;;;17.20;7.90;;;;;;;;;;6177885;23;20495;-89
2024/03/14 18:05:19;;;;;;;14.43;7.70;;;;;;;;;;6160469;23;20168;-89
2024/03/14 18:08:24;;;;;;;18.52;8.43;;;;;;;;;;6175742;23;20593;-88
2024/03/14 18:11:29;;;;;;;24.77;10.07;;;;;;;;;;6178322;23;20191;-89
2024/03/14 18:14:35;;;;;;;16.55;8.00;;;;;;;;;;6178761;23;20147;-90
2024/03/14 18:17:40;;;;;;;17.23;7.97;;;;;;;;;;6196190;23;20167;-90